sensor_id;sensor_type;location;lat;lon;timestamp;temperature;humidity
13328;DHT22;6733;51.044;3.746;2022-09-09T00:06:32;15.40;99.90
13328;DHT22;6733;51.044;3.746;2022-09-09T00:11:46;15.40;99.90
13328;DHT22;6733;51.044;3.746;2022-09-09T00:16:54;15.40;99.90
13328;DHT22;6733;51.044;3.746;2022-09-09T00:19:37;15.40;99.90
13328;DHT22;6733;51.044;3.746;2022-09-09T00:22:21;15.40;99.90
13328;DHT22;6733;51.044;3.746;2022-09-09T00:24:52;15.40;99.90
13328;DHT22;6733;51.044;3.746;2022-09-09T00:27:30;15.40;99.90
13328;DHT22;6733;51.044;3.746;2022-09-09T00:30:13;15.30;99.90
13328;DHT22;6733;51.044;3.746;2022-09-09T00:32:40;15.30;99.90
13328;DHT22;6733;51.044;3.746;2022-09-09T00:37:36;15.20;99.90
13328;DHT22;6733;51.044;3.746;2022-09-09T00:40:23;15.20;99.90
13328;DHT22;6733;51.044;3.746;2022-09-09T00:48:03;15.10;99.90
13328;DHT22;6733;51.044;3.746;2022-09-09T00:50:57;15.10;99.90
13328;DHT22;6733;51.044;3.746;2022-09-09T00:53:38;15.10;99.90
13328;DHT22;6733;51.044;3.746;2022-09-09T00:56:13;15.10;99.90
13328;DHT22;6733;51.044;3.746;2022-09-09T00:59:00;15.10;99.90
13328;DHT22;6733;51.044;3.746;2022-09-09T01:01:27;15.10;99.90
13328;DHT22;6733;51.044;3.746;2022-09-09T01:03:55;15.10;99.90
13328;DHT22;6733;51.044;3.746;2022-09-09T01:06:33;15.00;99.90
13328;DHT22;6733;51.044;3.746;2022-09-09T01:12:17;15.00;99.90
13328;DHT22;6733;51.044;3.746;2022-09-09T01:14:48;15.00;99.90
13328;DHT22;6733;51.044;3.746;2022-09-09T01:27:28;14.80;99.90
13328;DHT22;6733;51.044;3.746;2022-09-09T01:29:54;14.90;99.90
13328;DHT22;6733;51.044;3.746;2022-09-09T01:32:50;14.80;99.90
13328;DHT22;6733;51.044;3.746;2022-09-09T01:38:05;14.80;99.90
13328;DHT22;6733;51.044;3.746;2022-09-09T01:40:32;14.70;99.90
13328;DHT22;6733;51.044;3.746;2022-09-09T01:42:58;14.70;99.90
13328;DHT22;6733;51.044;3.746;2022-09-09T01:45:24;14.70;99.90
13328;DHT22;6733;51.044;3.746;2022-09-09T01:47:52;14.70;99.90
13328;DHT22;6733;51.044;3.746;2022-09-09T01:50:20;14.70;99.90
13328;DHT22;6733;51.044;3.746;2022-09-09T01:52:48;14.70;99.90
13328;DHT22;6733;51.044;3.746;2022-09-09T01:55:16;14.70;99.90
13328;DHT22;6733;51.044;3.746;2022-09-09T01:57:56;14.70;99.90
13328;DHT22;6733;51.044;3.746;2022-09-09T02:00:24;14.80;99.90
13328;DHT22;6733;51.044;3.746;2022-09-09T02:03:09;14.80;99.90
13328;DHT22;6733;51.044;3.746;2022-09-09T02:05:47;14.80;99.90
13328;DHT22;6733;51.044;3.746;2022-09-09T02:08:23;14.90;99.90
13328;DHT22;6733;51.044;3.746;2022-09-09T02:11:13;14.90;99.90
13328;DHT22;6733;51.044;3.746;2022-09-09T02:13:40;14.90;99.90
13328;DHT22;6733;51.044;3.746;2022-09-09T02:21:23;15.00;99.90
13328;DHT22;6733;51.044;3.746;2022-09-09T02:23:50;15.10;99.90
13328;DHT22;6733;51.044;3.746;2022-09-09T02:26:19;15.20;99.90
13328;DHT22;6733;51.044;3.746;2022-09-09T02:28:49;15.20;99.90
13328;DHT22;6733;51.044;3.746;2022-09-09T02:31:18;15.30;99.90
13328;DHT22;6733;51.044;3.746;2022-09-09T02:33:56;15.30;99.90
13328;DHT22;6733;51.044;3.746;2022-09-09T02:36:37;15.40;99.90
13328;DHT22;6733;51.044;3.746;2022-09-09T02:39:08;15.40;99.90
13328;DHT22;6733;51.044;3.746;2022-09-09T02:41:37;15.50;99.90
13328;DHT22;6733;51.044;3.746;2022-09-09T02:44:13;15.50;99.90
13328;DHT22;6733;51.044;3.746;2022-09-09T02:52:14;15.50;99.90
13328;DHT22;6733;51.044;3.746;2022-09-09T02:54:44;15.50;99.90
13328;DHT22;6733;51.044;3.746;2022-09-09T02:57:19;15.50;99.90
13328;DHT22;6733;51.044;3.746;2022-09-09T02:59:47;15.60;99.90
13328;DHT22;6733;51.044;3.746;2022-09-09T03:02:14;15.60;99.90
13328;DHT22;6733;51.044;3.746;2022-09-09T03:04:40;15.50;99.90
13328;DHT22;6733;51.044;3.746;2022-09-09T03:07:10;15.50;99.90
13328;DHT22;6733;51.044;3.746;2022-09-09T03:09:36;15.50;99.90
13328;DHT22;6733;51.044;3.746;2022-09-09T03:12:02;15.50;99.90
13328;DHT22;6733;51.044;3.746;2022-09-09T03:14:30;15.50;99.90
13328;DHT22;6733;51.044;3.746;2022-09-09T03:16:56;15.50;99.90
13328;DHT22;6733;51.044;3.746;2022-09-09T03:19:26;15.50;99.90
13328;DHT22;6733;51.044;3.746;2022-09-09T03:21:53;15.50;99.90
13328;DHT22;6733;51.044;3.746;2022-09-09T03:24:20;15.50;99.90
13328;DHT22;6733;51.044;3.746;2022-09-09T03:26:47;15.60;99.90
13328;DHT22;6733;51.044;3.746;2022-09-09T03:29:13;15.60;99.90
13328;DHT22;6733;51.044;3.746;2022-09-09T03:31:40;15.60;99.90
13328;DHT22;6733;51.044;3.746;2022-09-09T03:34:07;15.60;99.90
13328;DHT22;6733;51.044;3.746;2022-09-09T03:36:34;15.60;99.90
13328;DHT22;6733;51.044;3.746;2022-09-09T03:39:00;15.60;99.90
13328;DHT22;6733;51.044;3.746;2022-09-09T03:41:29;15.70;99.90
13328;DHT22;6733;51.044;3.746;2022-09-09T03:43:55;15.70;99.90
13328;DHT22;6733;51.044;3.746;2022-09-09T03:46:23;15.70;99.90
13328;DHT22;6733;51.044;3.746;2022-09-09T03:48:50;15.70;99.90
13328;DHT22;6733;51.044;3.746;2022-09-09T03:51:18;15.80;99.90
13328;DHT22;6733;51.044;3.746;2022-09-09T03:53:45;15.80;99.90
13328;DHT22;6733;51.044;3.746;2022-09-09T03:56:11;15.70;99.90
13328;DHT22;6733;51.044;3.746;2022-09-09T03:58:37;15.80;99.90
13328;DHT22;6733;51.044;3.746;2022-09-09T04:01:09;15.80;99.90
13328;DHT22;6733;51.044;3.746;2022-09-09T04:03:35;15.80;99.90
13328;DHT22;6733;51.044;3.746;2022-09-09T04:06:03;15.80;99.90
13328;DHT22;6733;51.044;3.746;2022-09-09T04:08:30;15.80;99.90
13328;DHT22;6733;51.044;3.746;2022-09-09T04:11:02;15.80;99.90
13328;DHT22;6733;51.044;3.746;2022-09-09T04:13:31;15.70;99.90
13328;DHT22;6733;51.044;3.746;2022-09-09T04:15:59;15.70;99.90
13328;DHT22;6733;51.044;3.746;2022-09-09T04:18:27;15.80;99.90
13328;DHT22;6733;51.044;3.746;2022-09-09T04:20:54;15.80;99.90
13328;DHT22;6733;51.044;3.746;2022-09-09T04:23:22;15.80;99.90
13328;DHT22;6733;51.044;3.746;2022-09-09T04:25:51;15.80;99.90
13328;DHT22;6733;51.044;3.746;2022-09-09T04:28:19;15.80;99.90
13328;DHT22;6733;51.044;3.746;2022-09-09T04:30:46;15.80;99.90
13328;DHT22;6733;51.044;3.746;2022-09-09T04:33:13;15.80;99.90
13328;DHT22;6733;51.044;3.746;2022-09-09T04:35:45;15.80;99.90
13328;DHT22;6733;51.044;3.746;2022-09-09T04:38:11;15.80;99.90
13328;DHT22;6733;51.044;3.746;2022-09-09T04:40:37;15.80;99.90
13328;DHT22;6733;51.044;3.746;2022-09-09T04:43:06;15.90;99.90
13328;DHT22;6733;51.044;3.746;2022-09-09T04:45:32;15.80;99.90
13328;DHT22;6733;51.044;3.746;2022-09-09T04:47:59;15.80;99.90
13328;DHT22;6733;51.044;3.746;2022-09-09T04:50:25;15.80;99.90
13328;DHT22;6733;51.044;3.746;2022-09-09T04:52:52;15.80;99.90
13328;DHT22;6733;51.044;3.746;2022-09-09T04:55:18;15.80;99.90
13328;DHT22;6733;51.044;3.746;2022-09-09T04:57:44;15.80;99.90
13328;DHT22;6733;51.044;3.746;2022-09-09T05:00:11;15.80;99.90
13328;DHT22;6733;51.044;3.746;2022-09-09T05:02:41;15.80;99.90
13328;DHT22;6733;51.044;3.746;2022-09-09T05:05:08;15.80;99.90
13328;DHT22;6733;51.044;3.746;2022-09-09T05:07:34;15.70;99.90
13328;DHT22;6733;51.044;3.746;2022-09-09T05:10:00;15.70;99.90
13328;DHT22;6733;51.044;3.746;2022-09-09T05:12:27;15.80;99.90
13328;DHT22;6733;51.044;3.746;2022-09-09T05:14:53;15.80;99.90
13328;DHT22;6733;51.044;3.746;2022-09-09T05:17:19;15.80;99.90
13328;DHT22;6733;51.044;3.746;2022-09-09T05:19:45;15.80;99.90
13328;DHT22;6733;51.044;3.746;2022-09-09T05:22:11;15.80;99.90
13328;DHT22;6733;51.044;3.746;2022-09-09T05:24:38;15.90;99.90
13328;DHT22;6733;51.044;3.746;2022-09-09T05:27:04;15.90;99.90
13328;DHT22;6733;51.044;3.746;2022-09-09T05:29:32;15.90;99.90
13328;DHT22;6733;51.044;3.746;2022-09-09T05:32:01;16.00;99.90
13328;DHT22;6733;51.044;3.746;2022-09-09T05:34:27;16.00;99.90
13328;DHT22;6733;51.044;3.746;2022-09-09T05:36:53;15.90;99.90
13328;DHT22;6733;51.044;3.746;2022-09-09T05:39:20;16.00;99.90
13328;DHT22;6733;51.044;3.746;2022-09-09T05:41:46;15.90;99.90
13328;DHT22;6733;51.044;3.746;2022-09-09T05:44:12;15.90;99.90
13328;DHT22;6733;51.044;3.746;2022-09-09T05:46:39;16.00;99.90
13328;DHT22;6733;51.044;3.746;2022-09-09T05:49:05;16.00;99.90
13328;DHT22;6733;51.044;3.746;2022-09-09T05:51:32;16.10;99.90
13328;DHT22;6733;51.044;3.746;2022-09-09T05:53:58;16.10;99.90
13328;DHT22;6733;51.044;3.746;2022-09-09T05:56:27;16.10;99.90
13328;DHT22;6733;51.044;3.746;2022-09-09T05:58:54;16.20;99.90
13328;DHT22;6733;51.044;3.746;2022-09-09T06:01:23;16.10;99.90
13328;DHT22;6733;51.044;3.746;2022-09-09T06:03:50;16.20;99.90
13328;DHT22;6733;51.044;3.746;2022-09-09T06:06:19;16.20;99.90
13328;DHT22;6733;51.044;3.746;2022-09-09T06:08:46;16.20;99.90
13328;DHT22;6733;51.044;3.746;2022-09-09T06:11:18;16.20;99.90
13328;DHT22;6733;51.044;3.746;2022-09-09T06:13:45;16.20;99.90
13328;DHT22;6733;51.044;3.746;2022-09-09T06:16:14;16.20;99.90
13328;DHT22;6733;51.044;3.746;2022-09-09T06:18:41;16.10;99.90
13328;DHT22;6733;51.044;3.746;2022-09-09T06:21:19;16.10;99.90
13328;DHT22;6733;51.044;3.746;2022-09-09T06:23:46;16.00;99.90
13328;DHT22;6733;51.044;3.746;2022-09-09T06:26:16;15.90;99.90
13328;DHT22;6733;51.044;3.746;2022-09-09T06:28:50;16.10;99.90
13328;DHT22;6733;51.044;3.746;2022-09-09T06:31:18;15.90;99.90
13328;DHT22;6733;51.044;3.746;2022-09-09T06:33:49;15.90;99.90
13328;DHT22;6733;51.044;3.746;2022-09-09T06:36:20;15.90;99.90
13328;DHT22;6733;51.044;3.746;2022-09-09T06:38:47;15.90;99.90
13328;DHT22;6733;51.044;3.746;2022-09-09T06:41:16;15.90;99.90
13328;DHT22;6733;51.044;3.746;2022-09-09T06:43:42;16.10;99.90
13328;DHT22;6733;51.044;3.746;2022-09-09T06:46:11;16.10;99.90
13328;DHT22;6733;51.044;3.746;2022-09-09T06:48:39;16.30;99.90
13328;DHT22;6733;51.044;3.746;2022-09-09T06:51:17;16.30;99.90
13328;DHT22;6733;51.044;3.746;2022-09-09T06:53:45;16.40;99.90
13328;DHT22;6733;51.044;3.746;2022-09-09T06:56:26;16.50;99.90
13328;DHT22;6733;51.044;3.746;2022-09-09T06:58:55;16.50;99.90
13328;DHT22;6733;51.044;3.746;2022-09-09T07:01:25;16.60;99.90
13328;DHT22;6733;51.044;3.746;2022-09-09T07:03:53;16.70;99.90
13328;DHT22;6733;51.044;3.746;2022-09-09T07:06:22;16.80;99.90
13328;DHT22;6733;51.044;3.746;2022-09-09T07:08:54;16.90;99.90
13328;DHT22;6733;51.044;3.746;2022-09-09T07:11:22;17.00;99.90
13328;DHT22;6733;51.044;3.746;2022-09-09T07:13:49;17.10;99.90
13328;DHT22;6733;51.044;3.746;2022-09-09T07:16:17;17.10;99.90
13328;DHT22;6733;51.044;3.746;2022-09-09T07:18:44;17.10;99.90
13328;DHT22;6733;51.044;3.746;2022-09-09T07:21:12;17.00;99.90
13328;DHT22;6733;51.044;3.746;2022-09-09T07:23:39;17.00;99.90
13328;DHT22;6733;51.044;3.746;2022-09-09T07:26:17;16.90;99.90
13328;DHT22;6733;51.044;3.746;2022-09-09T07:28:45;17.10;99.90
13328;DHT22;6733;51.044;3.746;2022-09-09T07:31:20;17.30;99.90
13328;DHT22;6733;51.044;3.746;2022-09-09T07:33:47;17.50;99.90
13328;DHT22;6733;51.044;3.746;2022-09-09T07:36:17;17.50;99.90
13328;DHT22;6733;51.044;3.746;2022-09-09T07:38:45;17.60;99.90
13328;DHT22;6733;51.044;3.746;2022-09-09T07:41:15;17.50;99.90
13328;DHT22;6733;51.044;3.746;2022-09-09T07:43:45;17.50;99.90
13328;DHT22;6733;51.044;3.746;2022-09-09T07:46:12;17.40;99.90
13328;DHT22;6733;51.044;3.746;2022-09-09T07:48:47;17.50;99.90
13328;DHT22;6733;51.044;3.746;2022-09-09T07:51:25;17.50;99.90
13328;DHT22;6733;51.044;3.746;2022-09-09T07:53:54;17.50;99.90
13328;DHT22;6733;51.044;3.746;2022-09-09T07:56:20;17.50;99.90
13328;DHT22;6733;51.044;3.746;2022-09-09T07:58:50;17.50;99.90
13328;DHT22;6733;51.044;3.746;2022-09-09T08:01:47;17.40;99.90
13328;DHT22;6733;51.044;3.746;2022-09-09T08:04:16;17.30;99.90
13328;DHT22;6733;51.044;3.746;2022-09-09T08:06:48;17.10;99.90
13328;DHT22;6733;51.044;3.746;2022-09-09T08:09:15;17.00;99.90
13328;DHT22;6733;51.044;3.746;2022-09-09T08:11:42;16.90;99.90
13328;DHT22;6733;51.044;3.746;2022-09-09T08:14:09;16.90;99.90
13328;DHT22;6733;51.044;3.746;2022-09-09T08:16:39;16.80;99.90
13328;DHT22;6733;51.044;3.746;2022-09-09T08:19:06;16.70;99.90
13328;DHT22;6733;51.044;3.746;2022-09-09T08:21:34;16.70;99.90
13328;DHT22;6733;51.044;3.746;2022-09-09T08:24:03;16.70;99.90
13328;DHT22;6733;51.044;3.746;2022-09-09T08:26:32;16.60;99.90
13328;DHT22;6733;51.044;3.746;2022-09-09T08:29:01;16.60;99.90
13328;DHT22;6733;51.044;3.746;2022-09-09T08:31:31;16.70;99.90
13328;DHT22;6733;51.044;3.746;2022-09-09T08:33:58;16.70;99.90
13328;DHT22;6733;51.044;3.746;2022-09-09T08:36:31;16.70;99.90
13328;DHT22;6733;51.044;3.746;2022-09-09T08:38:59;16.70;99.90
13328;DHT22;6733;51.044;3.746;2022-09-09T08:47:35;16.80;99.90
13328;DHT22;6733;51.044;3.746;2022-09-09T08:58:25;17.00;99.90
13328;DHT22;6733;51.044;3.746;2022-09-09T09:11:45;16.90;99.90
13328;DHT22;6733;51.044;3.746;2022-09-09T09:14:23;16.80;99.90
13328;DHT22;6733;51.044;3.746;2022-09-09T09:17:12;16.90;99.90
13328;DHT22;6733;51.044;3.746;2022-09-09T09:19:41;17.00;99.90
13328;DHT22;6733;51.044;3.746;2022-09-09T09:22:24;17.20;99.90
13328;DHT22;6733;51.044;3.746;2022-09-09T09:27:58;17.60;99.90
13328;DHT22;6733;51.044;3.746;2022-09-09T09:30:35;17.90;99.90
13328;DHT22;6733;51.044;3.746;2022-09-09T09:33:14;18.00;99.90
13328;DHT22;6733;51.044;3.746;2022-09-09T09:35:42;18.10;99.90
13328;DHT22;6733;51.044;3.746;2022-09-09T09:38:22;18.20;99.90
13328;DHT22;6733;51.044;3.746;2022-09-09T09:40:53;18.40;99.90
13328;DHT22;6733;51.044;3.746;2022-09-09T09:43:32;18.30;99.90
13328;DHT22;6733;51.044;3.746;2022-09-09T09:45:59;18.30;99.90
13328;DHT22;6733;51.044;3.746;2022-09-09T09:48:27;18.20;99.90
13328;DHT22;6733;51.044;3.746;2022-09-09T09:50:54;18.20;99.90
13328;DHT22;6733;51.044;3.746;2022-09-09T09:53:32;18.20;99.90
13328;DHT22;6733;51.044;3.746;2022-09-09T09:56:01;18.10;99.90
13328;DHT22;6733;51.044;3.746;2022-09-09T09:58:31;18.10;99.90
13328;DHT22;6733;51.044;3.746;2022-09-09T10:01:00;18.00;99.90
13328;DHT22;6733;51.044;3.746;2022-09-09T10:03:29;18.00;99.90
13328;DHT22;6733;51.044;3.746;2022-09-09T10:05:56;18.00;99.90
13328;DHT22;6733;51.044;3.746;2022-09-09T10:08:24;17.90;99.90
13328;DHT22;6733;51.044;3.746;2022-09-09T10:11:23;17.90;99.90
13328;DHT22;6733;51.044;3.746;2022-09-09T10:14:20;17.90;99.90
13328;DHT22;6733;51.044;3.746;2022-09-09T10:17:12;17.90;99.90
13328;DHT22;6733;51.044;3.746;2022-09-09T10:19:54;18.00;99.90
13328;DHT22;6733;51.044;3.746;2022-09-09T10:22:25;18.00;99.90
13328;DHT22;6733;51.044;3.746;2022-09-09T10:25:11;18.10;99.90
13328;DHT22;6733;51.044;3.746;2022-09-09T10:30:32;18.30;99.90
13328;DHT22;6733;51.044;3.746;2022-09-09T10:33:19;18.20;99.90
13328;DHT22;6733;51.044;3.746;2022-09-09T10:38:50;18.00;99.90
13328;DHT22;6733;51.044;3.746;2022-09-09T10:41:24;18.20;99.90
13328;DHT22;6733;51.044;3.746;2022-09-09T10:49:24;18.60;99.90
13328;DHT22;6733;51.044;3.746;2022-09-09T10:52:16;18.90;99.90
13328;DHT22;6733;51.044;3.746;2022-09-09T10:57:45;18.80;99.90
13328;DHT22;6733;51.044;3.746;2022-09-09T11:03:03;18.80;99.90
13328;DHT22;6733;51.044;3.746;2022-09-09T11:08:14;18.90;99.90
13328;DHT22;6733;51.044;3.746;2022-09-09T11:10:53;18.80;99.90
13328;DHT22;6733;51.044;3.746;2022-09-09T11:19:02;19.50;99.90
13328;DHT22;6733;51.044;3.746;2022-09-09T11:21:33;20.30;99.90
13328;DHT22;6733;51.044;3.746;2022-09-09T11:24:06;20.30;99.90
13328;DHT22;6733;51.044;3.746;2022-09-09T11:26:46;20.10;99.90
13328;DHT22;6733;51.044;3.746;2022-09-09T11:32:47;20.30;99.90
13328;DHT22;6733;51.044;3.746;2022-09-09T11:40:39;20.60;99.90
13328;DHT22;6733;51.044;3.746;2022-09-09T11:43:20;20.60;99.90
13328;DHT22;6733;51.044;3.746;2022-09-09T11:45:54;20.60;99.90
13328;DHT22;6733;51.044;3.746;2022-09-09T11:48:43;20.80;99.90
13328;DHT22;6733;51.044;3.746;2022-09-09T11:51:13;20.70;99.90
13328;DHT22;6733;51.044;3.746;2022-09-09T11:56:47;20.00;99.90
13328;DHT22;6733;51.044;3.746;2022-09-09T11:59:32;19.80;99.90
13328;DHT22;6733;51.044;3.746;2022-09-09T12:02:17;20.00;99.90
13328;DHT22;6733;51.044;3.746;2022-09-09T12:04:54;20.30;99.90
13328;DHT22;6733;51.044;3.746;2022-09-09T12:07:33;20.00;99.90
13328;DHT22;6733;51.044;3.746;2022-09-09T12:10:29;20.10;99.90
13328;DHT22;6733;51.044;3.746;2022-09-09T12:15:50;20.10;99.90
13328;DHT22;6733;51.044;3.746;2022-09-09T12:18:33;20.30;99.90
13328;DHT22;6733;51.044;3.746;2022-09-09T12:23:49;20.30;99.90
13328;DHT22;6733;51.044;3.746;2022-09-09T12:26:25;20.40;99.90
13328;DHT22;6733;51.044;3.746;2022-09-09T12:31:39;20.40;99.90
13328;DHT22;6733;51.044;3.746;2022-09-09T12:34:24;20.50;99.90
13328;DHT22;6733;51.044;3.746;2022-09-09T12:39:55;20.80;99.90
13328;DHT22;6733;51.044;3.746;2022-09-09T12:42:23;21.20;99.90
13328;DHT22;6733;51.044;3.746;2022-09-09T12:44:56;21.10;99.90
13328;DHT22;6733;51.044;3.746;2022-09-09T12:47:48;21.30;99.90
13328;DHT22;6733;51.044;3.746;2022-09-09T12:50:19;20.70;99.90
13328;DHT22;6733;51.044;3.746;2022-09-09T12:52:48;20.60;99.90
13328;DHT22;6733;51.044;3.746;2022-09-09T12:55:21;20.00;99.90
13328;DHT22;6733;51.044;3.746;2022-09-09T12:57:51;20.20;99.90
13328;DHT22;6733;51.044;3.746;2022-09-09T13:00:21;20.10;99.90
13328;DHT22;6733;51.044;3.746;2022-09-09T13:02:53;20.10;99.90
13328;DHT22;6733;51.044;3.746;2022-09-09T13:05:34;20.10;99.90
13328;DHT22;6733;51.044;3.746;2022-09-09T13:08:06;19.70;99.90
13328;DHT22;6733;51.044;3.746;2022-09-09T13:10:43;19.70;99.90
13328;DHT22;6733;51.044;3.746;2022-09-09T13:13:21;19.80;99.90
13328;DHT22;6733;51.044;3.746;2022-09-09T13:15:56;19.80;99.90
13328;DHT22;6733;51.044;3.746;2022-09-09T13:18:28;19.60;99.90
13328;DHT22;6733;51.044;3.746;2022-09-09T13:20:56;19.80;99.90
13328;DHT22;6733;51.044;3.746;2022-09-09T13:23:27;20.10;99.90
13328;DHT22;6733;51.044;3.746;2022-09-09T13:26:00;20.20;99.90
13328;DHT22;6733;51.044;3.746;2022-09-09T13:28:28;20.70;99.90
13328;DHT22;6733;51.044;3.746;2022-09-09T13:31:02;20.80;99.90
13328;DHT22;6733;51.044;3.746;2022-09-09T13:33:38;21.40;99.90
13328;DHT22;6733;51.044;3.746;2022-09-09T13:36:06;21.50;99.90
13328;DHT22;6733;51.044;3.746;2022-09-09T13:41:21;22.00;99.90
13328;DHT22;6733;51.044;3.746;2022-09-09T13:43:50;22.10;99.90
13328;DHT22;6733;51.044;3.746;2022-09-09T13:46:40;21.90;99.90
13328;DHT22;6733;51.044;3.746;2022-09-09T13:54:09;20.90;99.90
13328;DHT22;6733;51.044;3.746;2022-09-09T13:56:38;21.00;99.90
13328;DHT22;6733;51.044;3.746;2022-09-09T13:59:08;20.90;99.90
13328;DHT22;6733;51.044;3.746;2022-09-09T14:01:35;20.80;99.90
13328;DHT22;6733;51.044;3.746;2022-09-09T14:04:01;20.40;99.90
13328;DHT22;6733;51.044;3.746;2022-09-09T14:06:27;20.30;99.90
13328;DHT22;6733;51.044;3.746;2022-09-09T14:08:55;20.30;99.90
13328;DHT22;6733;51.044;3.746;2022-09-09T14:11:21;20.30;99.90
13328;DHT22;6733;51.044;3.746;2022-09-09T14:13:48;20.20;99.90
13328;DHT22;6733;51.044;3.746;2022-09-09T14:16:17;20.20;99.90
13328;DHT22;6733;51.044;3.746;2022-09-09T14:18:44;20.30;99.90
13328;DHT22;6733;51.044;3.746;2022-09-09T14:21:10;20.20;99.90
13328;DHT22;6733;51.044;3.746;2022-09-09T14:23:37;20.40;99.90
13328;DHT22;6733;51.044;3.746;2022-09-09T14:26:07;20.50;99.90
13328;DHT22;6733;51.044;3.746;2022-09-09T14:28:34;20.70;99.90
13328;DHT22;6733;51.044;3.746;2022-09-09T14:31:02;20.90;99.90
13328;DHT22;6733;51.044;3.746;2022-09-09T14:33:28;21.40;99.90
13328;DHT22;6733;51.044;3.746;2022-09-09T14:35:58;22.70;99.90
13328;DHT22;6733;51.044;3.746;2022-09-09T14:38:29;24.30;99.90
13328;DHT22;6733;51.044;3.746;2022-09-09T14:40:56;25.60;99.90
13328;DHT22;6733;51.044;3.746;2022-09-09T14:43:22;26.00;99.90
13328;DHT22;6733;51.044;3.746;2022-09-09T14:45:48;26.00;99.90
13328;DHT22;6733;51.044;3.746;2022-09-09T14:48:14;25.80;99.90
13328;DHT22;6733;51.044;3.746;2022-09-09T14:50:41;25.50;99.90
13328;DHT22;6733;51.044;3.746;2022-09-09T14:53:08;25.10;99.90
13328;DHT22;6733;51.044;3.746;2022-09-09T14:55:35;25.70;99.90
13328;DHT22;6733;51.044;3.746;2022-09-09T14:58:01;25.80;99.90
13328;DHT22;6733;51.044;3.746;2022-09-09T15:00:27;26.50;99.90
13328;DHT22;6733;51.044;3.746;2022-09-09T15:02:54;25.10;99.90
13328;DHT22;6733;51.044;3.746;2022-09-09T15:05:21;23.90;99.90
13328;DHT22;6733;51.044;3.746;2022-09-09T15:07:47;24.10;99.90
13328;DHT22;6733;51.044;3.746;2022-09-09T15:10:16;23.80;99.90
13328;DHT22;6733;51.044;3.746;2022-09-09T15:12:45;23.50;99.90
13328;DHT22;6733;51.044;3.746;2022-09-09T15:15:11;23.10;99.90
13328;DHT22;6733;51.044;3.746;2022-09-09T15:17:38;22.30;99.90
13328;DHT22;6733;51.044;3.746;2022-09-09T15:20:05;22.30;99.90
13328;DHT22;6733;51.044;3.746;2022-09-09T15:22:34;23.00;99.90
13328;DHT22;6733;51.044;3.746;2022-09-09T15:25:02;22.40;99.90
13328;DHT22;6733;51.044;3.746;2022-09-09T15:27:28;22.30;99.90
13328;DHT22;6733;51.044;3.746;2022-09-09T15:29:56;22.20;99.90
13328;DHT22;6733;51.044;3.746;2022-09-09T15:32:23;21.90;99.90
13328;DHT22;6733;51.044;3.746;2022-09-09T15:34:49;21.70;99.90
13328;DHT22;6733;51.044;3.746;2022-09-09T15:37:17;21.50;99.90
13328;DHT22;6733;51.044;3.746;2022-09-09T15:39:43;21.30;99.90
13328;DHT22;6733;51.044;3.746;2022-09-09T15:42:09;21.00;99.90
13328;DHT22;6733;51.044;3.746;2022-09-09T15:44:41;20.90;99.90
13328;DHT22;6733;51.044;3.746;2022-09-09T15:47:10;20.70;99.90
13328;DHT22;6733;51.044;3.746;2022-09-09T15:49:38;20.50;99.90
13328;DHT22;6733;51.044;3.746;2022-09-09T15:52:04;20.40;99.90
13328;DHT22;6733;51.044;3.746;2022-09-09T15:54:32;20.50;99.90
13328;DHT22;6733;51.044;3.746;2022-09-09T15:57:01;21.30;99.90
13328;DHT22;6733;51.044;3.746;2022-09-09T15:59:29;21.40;99.90
13328;DHT22;6733;51.044;3.746;2022-09-09T16:01:57;21.10;99.90
13328;DHT22;6733;51.044;3.746;2022-09-09T16:04:26;21.00;99.90
13328;DHT22;6733;51.044;3.746;2022-09-09T16:06:54;21.00;99.90
13328;DHT22;6733;51.044;3.746;2022-09-09T16:09:21;20.90;99.90
13328;DHT22;6733;51.044;3.746;2022-09-09T16:11:47;20.70;99.90
13328;DHT22;6733;51.044;3.746;2022-09-09T16:14:14;20.90;99.90
13328;DHT22;6733;51.044;3.746;2022-09-09T16:16:42;21.20;99.90
13328;DHT22;6733;51.044;3.746;2022-09-09T16:19:11;22.20;99.90
13328;DHT22;6733;51.044;3.746;2022-09-09T16:21:46;22.10;99.90
13328;DHT22;6733;51.044;3.746;2022-09-09T16:24:15;21.90;99.90
13328;DHT22;6733;51.044;3.746;2022-09-09T16:26:44;21.70;99.90
13328;DHT22;6733;51.044;3.746;2022-09-09T16:29:12;21.30;99.90
13328;DHT22;6733;51.044;3.746;2022-09-09T16:31:39;21.20;99.90
13328;DHT22;6733;51.044;3.746;2022-09-09T16:34:07;20.90;99.90
13328;DHT22;6733;51.044;3.746;2022-09-09T16:36:35;21.00;99.90
13328;DHT22;6733;51.044;3.746;2022-09-09T16:39:04;20.80;99.90
13328;DHT22;6733;51.044;3.746;2022-09-09T16:41:31;20.80;99.90
13328;DHT22;6733;51.044;3.746;2022-09-09T16:43:59;20.80;99.90
13328;DHT22;6733;51.044;3.746;2022-09-09T16:46:27;20.80;99.90
13328;DHT22;6733;51.044;3.746;2022-09-09T16:48:56;20.70;99.90
13328;DHT22;6733;51.044;3.746;2022-09-09T16:51:32;20.50;99.90
13328;DHT22;6733;51.044;3.746;2022-09-09T16:54:00;20.50;99.90
13328;DHT22;6733;51.044;3.746;2022-09-09T16:56:30;20.40;99.90
13328;DHT22;6733;51.044;3.746;2022-09-09T16:58:58;20.30;99.90
13328;DHT22;6733;51.044;3.746;2022-09-09T17:01:26;20.30;99.90
13328;DHT22;6733;51.044;3.746;2022-09-09T17:03:53;20.30;99.90
13328;DHT22;6733;51.044;3.746;2022-09-09T17:06:20;20.00;99.90
13328;DHT22;6733;51.044;3.746;2022-09-09T17:08:46;19.80;99.90
13328;DHT22;6733;51.044;3.746;2022-09-09T17:11:16;19.50;99.90
13328;DHT22;6733;51.044;3.746;2022-09-09T17:13:46;19.20;99.90
13328;DHT22;6733;51.044;3.746;2022-09-09T17:16:14;18.80;99.90
13328;DHT22;6733;51.044;3.746;2022-09-09T17:18:41;18.50;99.90
13328;DHT22;6733;51.044;3.746;2022-09-09T17:21:13;18.40;99.90
13328;DHT22;6733;51.044;3.746;2022-09-09T17:23:40;18.20;99.90
13328;DHT22;6733;51.044;3.746;2022-09-09T17:26:09;18.40;99.90
13328;DHT22;6733;51.044;3.746;2022-09-09T17:28:36;18.40;99.90
13328;DHT22;6733;51.044;3.746;2022-09-09T17:31:05;18.40;99.90
13328;DHT22;6733;51.044;3.746;2022-09-09T17:33:38;18.50;99.90
13328;DHT22;6733;51.044;3.746;2022-09-09T17:36:11;18.60;99.90
13328;DHT22;6733;51.044;3.746;2022-09-09T17:38:37;18.60;99.90
13328;DHT22;6733;51.044;3.746;2022-09-09T17:43:32;18.60;99.90
13328;DHT22;6733;51.044;3.746;2022-09-09T17:46:06;18.50;99.90
13328;DHT22;6733;51.044;3.746;2022-09-09T17:48:33;18.50;99.90
13328;DHT22;6733;51.044;3.746;2022-09-09T17:50:59;18.50;99.90
13328;DHT22;6733;51.044;3.746;2022-09-09T17:53:25;18.40;99.90
13328;DHT22;6733;51.044;3.746;2022-09-09T17:55:52;18.40;99.90
13328;DHT22;6733;51.044;3.746;2022-09-09T17:58:18;18.40;99.90
13328;DHT22;6733;51.044;3.746;2022-09-09T18:00:44;18.30;99.90
13328;DHT22;6733;51.044;3.746;2022-09-09T18:03:10;18.30;99.90
13328;DHT22;6733;51.044;3.746;2022-09-09T18:05:37;18.30;99.90
13328;DHT22;6733;51.044;3.746;2022-09-09T18:08:03;18.20;99.90
13328;DHT22;6733;51.044;3.746;2022-09-09T18:10:29;18.10;99.90
13328;DHT22;6733;51.044;3.746;2022-09-09T18:12:56;18.10;99.90
13328;DHT22;6733;51.044;3.746;2022-09-09T18:15:23;18.00;99.90
13328;DHT22;6733;51.044;3.746;2022-09-09T18:17:49;18.00;99.90